CGR weather

Campo Grande Airport
Campo Grande, Mato Grosso do Sul, Brazil

Public forecast

Using degrees Celsius for public forecast. Weather courtesy of forecast.io.

METAR (pilot weather report)

Retrieved 2019/06/17 00:00 UTC (21 minutes ago):

SBCG 170000Z 07007KT CAVOK 22/13 Q1020

TAF (pilot weather forecast)

Retrieved 2019/06/17 00:00 UTC (21 minutes ago):

TAF SBCG 162200Z 1700/1724 07007KT CAVOK TN20/1708Z TX30/1718Z RMK PER